Time;durP1;ratioP1;P1;durP2;ratioP2;P2;SDS_P1;SDS_P2;PMS_P1;PMS_P2;Temp;Humidity;BMP_temperature;BMP_pressure;BME280_temperature;BME280_humidity;BME280_pressure;Samples;Min_cycle;Max_cycle;Signal;HPM_P1;HPM_P2
2022/10/05 00:01:33;;;;;;;22.17;14.95;;;;;;;13.77;89.62;101646.59;5034337;28;20037;-59
2022/10/05 00:04:17;;;;;;;;;;;;;;;13.89;88.67;101665.53;5034776;28;20026;-60
2022/10/05 00:07:13;;;;;;;21.75;14.60;;;;;;;13.88;89.86;101669.44;5034386;28;19951;-60
2022/10/05 00:09:38;;;;;;;22.65;15.52;;;;;;;13.85;90.24;101673.69;5027211;28;20099;-60
2022/10/05 00:12:15;;;;;;;23.77;15.73;;;;;;;13.81;90.49;101669.84;5033644;28;20128;-60
2022/10/05 00:14:41;;;;;;;23.00;16.25;;;;;;;13.80;91.05;101667.38;5033295;28;20108;-60
2022/10/05 00:17:12;;;;;;;23.58;15.23;;;;;;;13.76;91.41;101669.97;5033594;28;20048;-59
2022/10/05 00:19:38;;;;;;;22.40;15.63;;;;;;;13.75;91.63;101668.31;5034165;28;20072;-60
2022/10/05 00:22:16;;;;;;;24.02;16.33;;;;;;;13.66;91.71;101645.13;5033976;28;20053;-60
2022/10/05 00:24:47;;;;;;;23.05;16.73;;;;;;;13.72;91.87;101644.72;5033834;28;20108;-60
2022/10/05 00:27:24;;;;;;;23.20;16.35;;;;;;;13.68;92.04;101640.91;5033887;28;20091;-60
2022/10/05 00:29:51;;;;;;;22.15;15.73;;;;;;;13.72;91.98;101660.56;5033553;28;20083;-60
2022/10/05 00:32:17;;;;;;;24.60;16.17;;;;;;;13.67;91.72;101644.00;5033868;28;20100;-59
2022/10/05 00:34:43;;;;;;;22.42;16.70;;;;;;;13.67;92.19;101647.59;5033357;28;20483;-60
2022/10/05 00:37:09;;;;;;;22.00;15.43;;;;;;;13.65;92.32;101644.28;5033007;28;20028;-60
2022/10/05 00:39:37;;;;;;;24.85;16.23;;;;;;;13.56;92.67;101640.56;5031616;28;20112;-59
2022/10/05 00:42:32;;;;;;;24.38;16.30;;;;;;;13.64;92.62;101644.59;5033330;28;20049;-59
2022/10/05 00:45:08;;;;;;;23.15;15.60;;;;;;;13.46;92.84;101613.00;5031600;28;20426;-60
2022/10/05 00:47:33;;;;;;;25.20;16.60;;;;;;;13.60;92.88;101638.84;5032632;28;20484;-60
2022/10/05 00:50:17;;;;;;;23.73;15.97;;;;;;;13.60;92.87;101649.97;5033068;28;20029;-59
2022/10/05 00:52:45;;;;;;;;;;;;;;;13.63;91.49;101646.56;5033805;28;20357;-59
2022/10/05 00:55:29;;;;;;;24.23;16.80;;;;;;;13.61;92.92;101648.84;5032729;28;19959;-59
2022/10/05 00:58:27;;;;;;;23.85;16.40;;;;;;;13.59;92.93;101645.53;5032308;28;20064;-60
2022/10/05 01:01:09;;;;;;;24.02;16.23;;;;;;;13.56;93.51;101640.56;5032957;28;20091;-60
2022/10/05 01:04:02;;;;;;;23.80;16.85;;;;;;;13.54;93.35;101640.88;5033130;28;20033;-60
2022/10/05 01:06:32;;;;;;;24.05;17.08;;;;;;;13.53;93.69;101644.78;5032586;28;20056;-60
2022/10/05 01:09:00;;;;;;;25.45;17.15;;;;;;;13.54;93.62;101637.31;5032790;28;20060;-60
2022/10/05 01:11:32;;;;;;;25.20;16.63;;;;;;;13.52;93.78;101634.00;5032242;28;20126;-61
2022/10/05 01:14:12;;;;;;;23.95;16.88;;;;;;;13.51;93.54;101630.38;5032588;28;20040;-61
2022/10/05 01:16:50;;;;;;;23.83;16.20;;;;;;;13.46;93.94;101619.38;5032368;28;20068;-61
2022/10/05 01:19:38;;;;;;;25.65;17.33;;;;;;;13.49;93.63;101618.75;5032600;28;20033;-61
2022/10/05 01:22:08;;;;;;;23.52;16.15;;;;;;;13.47;93.84;101617.41;5032636;28;20035;-60
2022/10/05 01:24:48;;;;;;;24.73;17.15;;;;;;;13.36;94.00;101600.06;5032924;28;20029;-60
2022/10/05 01:27:37;;;;;;;23.95;17.17;;;;;;;13.44;94.28;101612.47;5031654;28;20396;-60
2022/10/05 01:30:12;;;;;;;23.38;16.98;;;;;;;13.40;94.41;101609.50;5031009;28;20092;-60
2022/10/05 01:32:49;;;;;;;23.17;16.80;;;;;;;13.38;94.53;101606.97;5032406;28;20025;-61
2022/10/05 01:35:24;;;;;;;24.95;17.13;;;;;;;13.38;94.66;101611.72;5032682;28;20052;-60
2022/10/05 01:38:18;;;;;;;25.30;17.70;;;;;;;13.36;94.56;101600.91;5032409;28;20026;-61
2022/10/05 01:40:55;;;;;;;27.02;17.70;;;;;;;13.26;94.75;101598.31;5032450;28;20029;-61
2022/10/05 01:43:52;;;;;;;24.27;16.70;;;;;;;13.33;94.78;101601.50;5032244;28;20127;-60
2022/10/05 01:46:37;;;;;;;23.63;16.40;;;;;;;13.34;94.70;101596.78;5032539;28;20108;-60
2022/10/05 01:49:36;;;;;;;23.67;15.98;;;;;;;13.35;94.52;101602.03;5032454;28;20029;-60
2022/10/05 01:52:47;;;;;;;23.25;15.82;;;;;;;13.37;94.51;101604.50;5032299;28;20110;-60
2022/10/05 01:55:12;;;;;;;24.75;16.33;;;;;;;13.37;94.41;101601.72;5032481;28;20453;-60
2022/10/05 01:57:49;;;;;;;24.02;16.38;;;;;;;13.36;nan;101580.63;5032903;28;20037;-61
2022/10/05 02:00:17;;;;;;;24.95;16.70;;;;;;;13.33;94.04;101578.44;5035675;28;20025;-59
2022/10/05 02:02:47;;;;;;;22.98;17.00;;;;;;;13.37;94.63;101571.97;5036305;28;20082;-61
2022/10/05 02:05:37;;;;;;;24.98;16.77;;;;;;;13.38;94.48;101567.25;5035909;28;20048;-60
2022/10/05 02:08:08;;;;;;;23.15;16.13;;;;;;;13.39;94.49;101568.94;5035305;28;20156;-60
2022/10/05 02:10:41;;;;;;;24.67;17.33;;;;;;;13.36;94.29;101564.78;5035715;28;20090;-60
2022/10/05 02:13:20;;;;;;;24.92;17.33;;;;;;;13.34;94.39;101549.53;5035556;28;20037;-60
2022/10/05 02:15:53;;;;;;;23.35;16.45;;;;;;;13.36;94.25;101555.59;5035576;28;20084;-60
2022/10/05 02:18:24;;;;;;;25.35;17.05;;;;;;;13.36;93.92;101553.66;5035811;28;20114;-60
2022/10/05 02:20:52;;;;;;;23.63;17.00;;;;;;;13.34;94.26;101557.88;5035578;28;20026;-60
2022/10/05 02:23:22;;;;;;;23.98;16.88;;;;;;;13.24;94.27;101548.59;5036126;28;20030;-60
2022/10/05 02:25:50;;;;;;;24.90;16.95;;;;;;;13.34;94.64;101558.72;5036101;28;20040;-60
2022/10/05 02:28:30;;;;;;;24.13;15.60;;;;;;;13.34;94.21;101555.09;5036033;28;20510;-60
2022/10/05 02:31:10;;;;;;;25.25;16.98;;;;;;;13.33;94.60;101542.31;5035947;28;20022;-60
2022/10/05 02:33:35;;;;;;;25.02;16.20;;;;;;;13.32;94.36;101543.47;5035838;28;20040;-60
2022/10/05 02:36:10;;;;;;;23.55;17.05;;;;;;;13.29;94.88;101535.75;5035622;28;20033;-60
2022/10/05 02:38:54;;;;;;;22.65;16.38;;;;;;;13.31;94.63;101537.09;5035545;28;20457;-60
2022/10/05 02:41:32;;;;;;;24.17;16.08;;;;;;;13.20;94.39;101510.63;5035449;28;20086;-60
2022/10/05 02:44:03;;;;;;;24.00;16.73;;;;;;;13.31;94.06;101525.16;5035449;28;20469;-60
2022/10/05 02:47:02;;;;;;;23.92;16.77;;;;;;;13.31;94.58;101522.38;5035080;28;20033;-59
2022/10/05 02:49:43;;;;;;;23.92;17.58;;;;;;;13.14;94.42;101500.75;5035151;28;20030;-60
2022/10/05 02:53:07;;;;;;;24.30;16.55;;;;;;;13.31;94.47;101525.97;5035752;28;20044;-60
2022/10/05 02:55:38;;;;;;;23.95;17.25;;;;;;;13.26;94.91;101520.53;5009776;28;20049;-61
2022/10/05 02:58:26;;;;;;;25.80;17.13;;;;;;;13.16;94.64;101493.75;5035826;28;20373;-61
2022/10/05 03:01:02;;;;;;;24.40;16.08;;;;;;;13.20;94.96;101505.91;5035806;28;20022;-60
2022/10/05 03:03:36;;;;;;;23.85;16.70;;;;;;;13.20;95.23;101511.47;5035432;28;20026;-61
2022/10/05 03:06:06;;;;;;;24.10;17.20;;;;;;;13.17;95.48;101509.28;5035088;28;20029;-58
2022/10/05 03:08:40;;;;;;;23.00;17.23;;;;;;;13.16;95.50;101499.31;5035274;28;20061;-60
2022/10/05 03:11:17;;;;;;;25.98;17.13;;;;;;;13.13;95.62;101499.91;5034093;28;20034;-60
2022/10/05 03:14:00;;;;;;;24.33;17.27;;;;;;;13.07;96.04;101488.09;5034842;28;20026;-61
2022/10/05 03:16:47;;;;;;;24.67;16.90;;;;;;;13.00;96.11;101486.84;5034700;28;20095;-59
2022/10/05 03:19:15;;;;;;;26.27;17.50;;;;;;;13.06;96.10;101496.72;5035162;28;20045;-59
2022/10/05 03:21:55;;;;;;;24.13;16.63;;;;;;;13.05;96.25;101497.84;5035051;28;20030;-59
2022/10/05 03:24:51;;;;;;;23.35;16.50;;;;;;;13.03;96.62;101497.34;5035081;28;20025;-60
2022/10/05 03:27:30;;;;;;;26.10;17.25;;;;;;;12.98;96.85;101487.16;5034975;28;20033;-61
2022/10/05 03:30:29;;;;;;;24.73;16.58;;;;;;;13.02;96.65;101499.28;5035010;28;20488;-61
2022/10/05 03:33:11;;;;;;;24.55;16.35;;;;;;;13.00;96.82;101501.53;5023395;28;20080;-60
2022/10/05 03:35:57;;;;;;;24.33;16.58;;;;;;;12.90;97.04;101490.63;5034965;28;20045;-60
2022/10/05 03:38:53;;;;;;;24.52;17.17;;;;;;;12.98;97.22;101503.00;5034742;28;20033;-60
2022/10/05 03:41:27;;;;;;;23.95;17.30;;;;;;;12.97;97.14;101495.78;5034550;28;20029;-60
2022/10/05 03:44:08;;;;;;;25.90;17.50;;;;;;;12.95;97.19;101498.88;5034499;28;20044;-60
2022/10/05 03:46:52;;;;;;;27.05;17.70;;;;;;;12.94;97.39;101497.22;5034356;28;20033;-60
2022/10/05 03:49:36;;;;;;;23.05;17.60;;;;;;;12.89;97.08;101491.78;5034423;28;20022;-59
2022/10/05 03:52:13;;;;;;;;;;;;;;;12.96;96.32;101494.97;5034986;28;20045;-61
2022/10/05 03:54:47;;;;;;;24.40;16.80;;;;;;;12.88;97.60;101493.72;5034252;28;20225;-60
2022/10/05 03:57:22;;;;;;;25.23;17.65;;;;;;;12.88;97.60;101502.06;5034395;28;20030;-60
2022/10/05 03:59:59;;;;;;;26.05;17.63;;;;;;;12.87;98.21;101491.25;5034346;28;20029;-60
2022/10/05 04:02:41;;;;;;;25.77;16.70;;;;;;;12.76;97.91;101476.72;5034218;28;20113;-61
2022/10/05 04:05:09;;;;;;;22.90;16.52;;;;;;;12.84;98.36;101491.84;5034411;28;20037;-60
2022/10/05 04:07:34;;;;;;;26.67;18.27;;;;;;;12.84;98.00;101483.53;5034202;28;20025;-61
2022/10/05 04:10:05;;;;;;;25.77;18.25;;;;;;;12.81;98.59;101487.75;5033998;28;20100;-60
2022/10/05 04:12:38;;;;;;;25.20;18.33;;;;;;;12.80;98.59;101495.25;5034237;28;20079;-60
2022/10/05 04:15:17;;;;;;;26.58;18.52;;;;;;;12.78;98.47;101486.41;5034432;28;20425;-59
2022/10/05 04:17:47;;;;;;;24.58;18.98;;;;;;;12.82;98.79;101489.41;5032680;28;20045;-60
2022/10/05 04:20:26;;;;;;;26.58;19.05;;;;;;;12.85;98.68;101499.06;5034109;28;20038;-60
2022/10/05 04:23:11;;;;;;;25.75;17.48;;;;;;;12.87;98.43;101488.47;5033726;28;20022;-60
2022/10/05 04:25:42;;;;;;;24.88;18.67;;;;;;;12.76;98.55;101483.13;5033788;28;20095;-60
2022/10/05 04:28:21;;;;;;;25.98;18.73;;;;;;;12.86;98.82;101493.19;5034169;28;20040;-60
2022/10/05 04:30:50;;;;;;;24.73;18.38;;;;;;;12.87;98.88;101497.63;5016050;28;20053;-60
2022/10/05 04:33:15;;;;;;;27.42;18.80;;;;;;;12.87;98.81;101491.25;5013771;28;20037;-61
2022/10/05 04:36:05;;;;;;;26.48;18.40;;;;;;;12.87;98.58;101494.84;5013574;28;20026;-60
2022/10/05 04:39:01;;;;;;;23.95;18.15;;;;;;;12.80;98.50;101478.56;5013536;28;20045;-60
2022/10/05 04:41:35;;;;;;;25.13;18.13;;;;;;;12.88;98.54;101487.34;5013581;28;20049;-60
2022/10/05 04:44:06;;;;;;;25.92;18.13;;;;;;;12.87;98.54;101483.75;5013675;28;20046;-61
2022/10/05 04:46:48;;;;;;;27.35;18.88;;;;;;;12.87;98.68;101482.94;5013620;28;20041;-60
2022/10/05 04:49:29;;;;;;;24.67;17.83;;;;;;;12.87;98.57;101480.97;5013902;28;20045;-61
2022/10/05 04:52:21;;;;;;;26.13;18.80;;;;;;;12.87;98.75;101469.84;5014148;28;20022;-60
2022/10/05 04:55:18;;;;;;;26.60;18.48;;;;;;;12.88;98.56;101477.06;5014248;28;20034;-61
2022/10/05 04:58:01;;;;;;;26.15;18.80;;;;;;;12.90;98.51;101476.75;5013485;28;20037;-60
2022/10/05 05:00:44;;;;;;;24.77;18.42;;;;;;;12.89;98.65;101475.94;5011762;28;20026;-61
2022/10/05 05:03:47;;;;;;;24.27;17.88;;;;;;;12.89;98.45;101470.38;5012852;28;20042;-61
2022/10/05 05:06:31;;;;;;;24.05;17.15;;;;;;;12.89;98.45;101467.59;5002024;28;20470;-60
2022/10/05 05:09:17;;;;;;;25.20;17.52;;;;;;;12.89;98.42;101470.38;5013031;28;20025;-60
2022/10/05 05:12:06;;;;;;;23.67;16.35;;;;;;;12.91;97.71;101472.84;5013367;28;20034;-61
2022/10/05 05:14:58;;;;;;;23.80;16.20;;;;;;;12.92;97.71;101464.22;4984595;28;20074;-61
2022/10/05 05:17:46;;;;;;;23.20;15.90;;;;;;;12.98;96.79;101464.94;5012816;28;20133;-60
2022/10/05 05:20:26;;;;;;;24.33;14.80;;;;;;;12.98;96.24;101459.41;5013179;28;20032;-60
2022/10/05 05:23:29;;;;;;;23.95;14.98;;;;;;;13.01;96.26;101466.28;5012849;28;20449;-60
2022/10/05 05:26:15;;;;;;;23.13;15.00;;;;;;;12.95;95.59;101458.03;5013123;28;20065;-59
2022/10/05 05:28:57;;;;;;;22.02;14.43;;;;;;;12.99;95.56;101451.88;5012984;28;20026;-60
2022/10/05 05:31:56;;;;;;;21.17;14.95;;;;;;;13.08;95.47;101463.91;5011194;28;20386;-59
2022/10/05 05:34:48;;;;;;;22.67;14.40;;;;;;;13.08;95.11;101458.34;5001166;28;20147;-59
2022/10/05 05:37:55;;;;;;;21.83;13.95;;;;;;;13.08;95.27;101463.91;5012836;28;20090;-58
2022/10/05 05:40:27;;;;;;;21.63;14.20;;;;;;;12.99;95.03;101444.34;4984362;28;20069;-59
2022/10/05 05:43:23;;;;;;;21.70;14.35;;;;;;;13.08;95.02;101453.59;5012902;28;20061;-59
2022/10/05 05:46:07;;;;;;;21.30;13.93;;;;;;;13.07;94.75;101457.53;5012753;28;20069;-59
2022/10/05 05:48:39;;;;;;;21.85;14.77;;;;;;;13.06;95.13;101455.91;5012439;28;20018;-59
2022/10/05 05:51:23;;;;;;;22.27;14.05;;;;;;;13.05;95.31;101454.25;5013050;28;20040;-59
2022/10/05 05:54:16;;;;;;;22.55;15.07;;;;;;;13.05;95.22;101456.19;5012868;28;20036;-59
2022/10/05 05:56:49;;;;;;;22.02;14.73;;;;;;;12.95;95.61;101432.22;5012955;28;20050;-59
2022/10/05 05:59:31;;;;;;;23.48;15.20;;;;;;;12.96;95.39;101442.22;5012736;28;20084;-60
2022/10/05 06:02:08;;;;;;;23.08;14.52;;;;;;;13.02;95.50;101449.28;5012467;28;20022;-59
2022/10/05 06:04:40;;;;;;;21.30;14.60;;;;;;;13.00;95.45;101440.44;5012787;28;20030;-59
2022/10/05 06:07:10;;;;;;;20.08;14.00;;;;;;;13.02;95.59;101448.50;5012642;28;20033;-59
2022/10/05 06:09:40;;;;;;;21.08;14.02;;;;;;;13.02;95.23;101443.75;5012573;28;20033;-60
2022/10/05 06:12:17;;;;;;;21.10;14.00;;;;;;;13.11;94.97;101453.00;5012489;28;20030;-59
2022/10/05 06:14:54;;;;;;;21.13;13.15;;;;;;;13.06;94.84;101452.28;5012435;28;20109;-59
2022/10/05 06:17:30;;;;;;;22.63;14.25;;;;;;;13.07;94.44;101452.00;5012124;28;20054;-60
2022/10/05 06:19:58;;;;;;;20.83;13.73;;;;;;;13.07;94.62;101451.16;5013197;28;20034;-60
2022/10/05 06:22:32;;;;;;;20.98;12.52;;;;;;;13.09;94.28;101457.22;5011212;28;20030;-60
2022/10/05 06:25:14;;;;;;;19.77;13.30;;;;;;;13.11;93.91;101453.00;5012210;28;20037;-58
2022/10/05 06:28:01;;;;;;;19.58;12.73;;;;;;;13.14;93.96;101447.97;5012823;28;20029;-59
2022/10/05 06:31:00;;;;;;;22.23;13.40;;;;;;;13.16;93.49;101448.50;5012322;28;20033;-59
2022/10/05 06:33:49;;;;;;;19.60;13.00;;;;;;;13.10;93.53;101440.25;5009522;28;20134;-59
2022/10/05 06:36:42;;;;;;;20.15;13.25;;;;;;;13.17;93.60;101442.63;5012079;28;20064;-59
2022/10/05 06:39:25;;;;;;;20.08;12.40;;;;;;;13.17;93.38;101447.34;5012333;28;20034;-59
2022/10/05 06:42:12;;;;;;;19.55;12.48;;;;;;;13.17;93.12;101445.38;5011640;28;20036;-59
2022/10/05 06:44:59;;;;;;;21.30;12.77;;;;;;;13.20;93.39;101446.72;5012218;28;20030;-60
2022/10/05 06:47:27;;;;;;;19.77;12.45;;;;;;;13.25;93.13;101443.84;5015237;28;20450;-59
2022/10/05 06:50:12;;;;;;;20.08;12.32;;;;;;;13.29;92.99;101449.59;5014117;28;20536;-58
2022/10/05 06:52:43;;;;;;;20.55;12.30;;;;;;;13.33;92.64;101442.28;5013856;28;20029;-59
2022/10/05 06:55:22;;;;;;;20.30;12.35;;;;;;;13.38;92.31;101439.41;5013406;28;20049;-59
2022/10/05 06:58:05;;;;;;;19.90;12.68;;;;;;;13.43;91.56;101444.88;5012225;28;20038;-59
2022/10/05 07:00:45;;;;;;;20.67;12.70;;;;;;;13.45;91.54;101442.63;5011772;28;20045;-59
2022/10/05 07:03:28;;;;;;;20.88;12.55;;;;;;;13.52;91.18;101442.19;5010742;28;20030;-59
2022/10/05 07:06:01;;;;;;;20.27;12.45;;;;;;;13.55;90.85;101450.72;5011680;28;20022;-60
2022/10/05 07:08:39;;;;;;;20.52;12.13;;;;;;;13.49;90.80;101434.47;5010332;28;20033;-59
2022/10/05 07:11:31;;;;;;;21.77;12.32;;;;;;;13.59;91.24;101452.91;5012513;28;20422;-58
2022/10/05 07:14:16;;;;;;;20.40;12.30;;;;;;;13.63;91.21;101460.31;5012874;28;20040;-59
2022/10/05 07:17:04;;;;;;;20.58;12.55;;;;;;;13.65;90.85;101455.22;5011938;28;20045;-59
2022/10/05 07:19:39;;;;;;;20.48;12.55;;;;;;;13.64;90.56;101445.28;5012361;28;20038;-59
2022/10/05 07:22:28;;;;;;;22.33;12.10;;;;;;;13.71;90.31;101447.59;5012526;28;20045;-59
2022/10/05 07:25:14;;;;;;;20.92;12.00;;;;;;;13.76;90.55;101453.06;5012363;28;20052;-59
2022/10/05 07:28:06;;;;;;;19.90;12.32;;;;;;;13.83;90.35;101458.19;5012355;28;20457;-60
2022/10/05 07:30:44;;;;;;;20.17;12.00;;;;;;;13.86;90.11;101458.41;5012276;28;20772;-59
2022/10/05 07:33:34;;;;;;;18.88;11.68;;;;;;;13.81;90.04;101450.16;5004937;28;20061;-59
2022/10/05 07:39:07;;;;;;;19.00;11.03;;;;;;;14.02;89.55;101455.25;5025202;28;20146;-59
2022/10/05 07:41:51;;;;;;;19.02;11.20;;;;;;;14.04;89.37;101461.31;5032177;28;20036;-59
2022/10/05 07:44:28;;;;;;;19.95;11.88;;;;;;;14.00;89.52;101449.16;5032020;28;20048;-58
2022/10/05 07:47:03;;;;;;;22.38;11.23;;;;;;;14.10;89.19;101454.47;5031950;28;20028;-58
2022/10/05 07:49:50;;;;;;;19.38;11.00;;;;;;;14.16;88.99;101458.81;5032020;28;20029;-58
2022/10/05 07:52:39;;;;;;;18.85;10.52;;;;;;;14.23;88.88;101466.69;5030610;28;20056;-59
2022/10/05 07:55:25;;;;;;;19.08;10.80;;;;;;;14.29;88.53;101467.38;5031672;28;20021;-60
2022/10/05 07:58:15;;;;;;;19.63;10.95;;;;;;;14.33;88.33;101466.44;5029977;28;20648;-58
2022/10/05 08:00:41;;;;;;;19.52;10.98;;;;;;;14.38;88.10;101464.69;5032024;28;20396;-59
2022/10/05 08:03:16;;;;;;;19.08;11.10;;;;;;;14.35;88.08;101452.22;5031796;28;20022;-62
2022/10/05 08:05:45;;;;;;;18.35;10.13;;;;;;;14.49;87.80;101464.09;5031444;28;20028;-60
2022/10/05 08:08:17;;;;;;;18.50;10.73;;;;;;;14.57;87.34;101462.50;5028281;28;20037;-57
2022/10/05 08:10:50;;;;;;;21.38;11.35;;;;;;;14.62;87.06;101456.78;5031677;28;20037;-58
2022/10/05 08:13:28;;;;;;;18.58;10.80;;;;;;;14.69;87.01;101442.44;5031309;28;20045;-58
2022/10/05 08:15:59;;;;;;;19.20;10.63;;;;;;;14.70;86.77;101441.31;5031295;28;20524;-59
2022/10/05 08:18:54;;;;;;;18.88;10.63;;;;;;;14.86;86.36;101446.47;5031247;28;20084;-60
2022/10/05 08:21:29;;;;;;;17.35;10.80;;;;;;;14.88;85.83;101445.00;5031103;28;20049;-62
2022/10/05 08:24:16;;;;;;;19.00;10.60;;;;;;;14.97;85.36;101434.69;5031233;28;20116;-59
2022/10/05 08:27:00;;;;;;;21.00;11.18;;;;;;;15.05;85.33;101432.28;5029967;28;20603;-60
2022/10/05 08:29:37;;;;;;;;;;;;;;;15.14;85.07;101438.72;5032150;28;20029;-59
2022/10/05 08:32:43;;;;;;;18.25;10.98;;;;;;;15.20;85.26;101431.03;5031145;28;19913;-59
2022/10/05 08:35:27;;;;;;;18.88;11.18;;;;;;;15.28;84.49;101431.03;4969621;28;20125;-60
2022/10/05 08:37:53;;;;;;;19.27;11.63;;;;;;;15.35;83.37;101430.56;4990492;28;20042;-59
2022/10/05 08:40:41;;;;;;;19.15;11.57;;;;;;;15.40;83.63;101424.00;4991211;28;20103;-59
2022/10/05 08:43:44;;;;;;;19.33;11.82;;;;;;;15.43;83.51;101423.38;4991237;28;20049;-59
2022/10/05 08:46:30;;;;;;;19.63;11.27;;;;;;;15.52;83.63;101417.78;4991276;28;20101;-58
2022/10/05 08:49:08;;;;;;;18.73;10.82;;;;;;;15.59;82.27;101418.13;4991459;28;20101;-58
2022/10/05 08:51:52;;;;;;;19.20;11.35;;;;;;;15.70;82.54;101422.25;4991585;28;20074;-57
2022/10/05 08:54:34;;;;;;;17.45;10.95;;;;;;;15.68;81.76;101407.78;4991118;28;20030;-57
2022/10/05 08:57:21;;;;;;;20.05;11.10;;;;;;;15.76;80.79;101417.31;4991456;28;20034;-57
2022/10/05 08:59:58;;;;;;;17.55;11.07;;;;;;;15.78;81.34;101415.03;4991644;28;20463;-58
2022/10/05 09:02:29;;;;;;;20.08;11.35;;;;;;;15.86;81.17;101414.25;4991408;28;20038;-57
2022/10/05 09:05:13;;;;;;;20.30;11.23;;;;;;;15.97;80.46;101414.72;4990212;28;20057;-59
2022/10/05 09:07:57;;;;;;;;;;;;;;;16.04;80.11;101411.44;4990006;28;20038;-60
2022/10/05 09:10:40;;;;;;;17.90;11.83;;;;;;;15.90;80.07;101389.28;4991227;28;19910;-59
2022/10/05 09:13:32;;;;;;;19.48;12.05;;;;;;;16.03;80.47;101402.25;4991101;28;20351;-59
2022/10/05 09:16:17;;;;;;;20.45;11.18;;;;;;;16.10;80.26;101400.94;4991608;28;20251;-59
2022/10/05 09:19:09;;;;;;;19.75;11.27;;;;;;;16.18;79.59;101403.72;4990848;28;20136;-58
2022/10/05 09:21:41;;;;;;;17.92;10.77;;;;;;;16.20;79.09;101404.19;4990906;28;20113;-58
2022/10/05 09:24:13;;;;;;;19.10;11.13;;;;;;;16.25;79.20;101400.41;4990813;28;20133;-60
2022/10/05 09:27:02;;;;;;;19.30;10.85;;;;;;;16.31;79.19;101401.88;4990645;28;20474;-59
2022/10/05 09:30:13;;;;;;;18.27;10.52;;;;;;;16.42;78.87;101412.69;4990702;28;20037;-59
2022/10/05 09:33:07;;;;;;;17.45;10.82;;;;;;;16.40;79.10;101389.88;4990707;28;20046;-60
2022/10/05 09:35:51;;;;;;;18.23;11.02;;;;;;;16.58;78.40;101399.84;4990562;28;20418;-58
2022/10/05 09:38:38;;;;;;;18.00;11.00;;;;;;;16.74;78.34;101396.47;4990534;28;20158;-59
2022/10/05 09:41:38;;;;;;;18.42;11.13;;;;;;;16.75;76.94;101395.31;4990433;28;20433;-59
2022/10/05 09:44:31;;;;;;;18.08;10.70;;;;;;;16.83;77.31;101391.66;4957053;28;20069;-59
2022/10/05 09:47:15;;;;;;;18.02;10.65;;;;;;;16.87;76.98;101395.44;4990204;28;20125;-59
2022/10/05 09:49:58;;;;;;;16.67;10.18;;;;;;;16.97;76.40;101386.72;4989145;28;20034;-58
2022/10/05 09:52:52;;;;;;;18.42;10.88;;;;;;;17.09;76.33;101387.97;4990319;28;20109;-59
2022/10/05 09:55:51;;;;;;;18.65;10.93;;;;;;;17.12;75.80;101384.47;4990032;28;20497;-60
2022/10/05 09:58:43;;;;;;;18.83;11.15;;;;;;;17.07;75.42;101382.69;4990004;28;20050;-59
2022/10/05 10:01:25;;;;;;;19.00;11.40;;;;;;;16.99;75.01;101377.97;4989051;28;20056;-59
2022/10/05 10:04:25;;;;;;;17.15;10.50;;;;;;;17.02;75.05;101374.53;4990009;28;20497;-59
2022/10/05 10:07:15;;;;;;;16.55;10.48;;;;;;;17.08;75.47;101370.38;4989629;28;20034;-61
2022/10/05 10:09:59;;;;;;;18.08;11.20;;;;;;;17.23;75.56;101368.97;4990135;28;20037;-59
2022/10/05 10:12:34;;;;;;;18.05;11.05;;;;;;;17.28;74.74;101359.56;4990338;28;20168;-59
2022/10/05 10:15:51;;;;;;;17.40;10.90;;;;;;;17.37;75.01;101356.72;4989720;28;20431;-62
2022/10/05 10:18:25;;;;;;;17.90;10.88;;;;;;;17.36;74.46;101357.88;4980693;28;20133;-60
2022/10/05 10:20:57;;;;;;;18.08;10.68;;;;;;;17.40;73.89;101354.06;4992557;28;20069;-60
2022/10/05 10:23:44;;;;;;;18.13;10.30;;;;;;;17.51;74.29;101357.25;4994203;28;20042;-61
2022/10/05 10:26:22;;;;;;;17.13;10.93;;;;;;;17.64;74.51;101348.94;4994006;28;20390;-59
2022/10/05 10:29:06;;;;;;;18.05;10.70;;;;;;;17.76;73.28;101354.56;4994368;28;20069;-59
2022/10/05 10:31:44;;;;;;;16.88;10.30;;;;;;;17.84;72.90;101347.25;4994184;28;20030;-60
2022/10/05 10:34:20;;;;;;;16.85;10.40;;;;;;;17.79;72.96;101323.09;4993977;28;20057;-60
2022/10/05 10:37:23;;;;;;;16.80;10.48;;;;;;;17.84;72.58;101325.69;4993771;28;20052;-60
2022/10/05 10:40:13;;;;;;;17.90;10.45;;;;;;;18.03;72.25;101324.38;4994132;28;20463;-59
2022/10/05 10:43:16;;;;;;;16.30;10.10;;;;;;;18.21;72.29;101333.41;4993878;28;20038;-59
2022/10/05 10:45:50;;;;;;;18.05;10.27;;;;;;;18.26;70.86;101327.59;4994172;28;20041;-59
2022/10/05 10:48:18;;;;;;;17.33;9.90;;;;;;;18.26;70.44;101323.94;4993817;28;20026;-58
2022/10/05 10:51:03;;;;;;;17.67;10.15;;;;;;;18.20;71.22;101327.00;4992316;28;20034;-59
2022/10/05 10:54:12;;;;;;;16.00;10.00;;;;;;;18.21;71.57;101320.22;4993552;28;20128;-59
2022/10/05 10:56:47;;;;;;;15.35;10.32;;;;;;;18.22;71.57;101321.88;4993769;28;20022;-59
2022/10/05 10:59:22;;;;;;;17.98;10.50;;;;;;;18.27;70.80;101317.19;4993285;28;20394;-59
2022/10/05 11:02:18;;;;;;;17.50;9.93;;;;;;;18.36;71.11;101303.91;4993896;28;20076;-61
2022/10/05 11:05:02;;;;;;;16.08;9.95;;;;;;;18.40;70.50;101300.06;4993413;28;20030;-59
2022/10/05 11:07:45;;;;;;;17.98;9.98;;;;;;;18.36;69.70;101301.94;4991381;28;20034;-59
2022/10/05 11:10:34;;;;;;;;;;;;;;;18.42;70.39;101288.50;4992220;28;20045;-59
2022/10/05 11:13:11;;;;;;;18.02;10.68;;;;;;;18.34;69.91;101307.06;4982898;28;19924;-59
2022/10/05 11:16:13;;;;;;;18.50;10.23;;;;;;;18.42;70.59;101296.88;4992956;28;20057;-59
2022/10/05 11:18:55;;;;;;;17.85;10.60;;;;;;;18.37;69.60;101283.94;4994928;28;20109;-59
2022/10/05 11:21:43;;;;;;;15.70;10.07;;;;;;;18.40;69.94;101290.84;4995080;28;20030;-59
2022/10/05 11:24:37;;;;;;;17.15;10.63;;;;;;;18.54;69.79;101296.09;4995087;28;20038;-60
2022/10/05 11:27:02;;;;;;;;;;;;;;;18.61;70.30;101289.91;4992704;28;20180;-59
2022/10/05 11:29:30;;;;;;;19.23;10.60;;;;;;;18.53;69.70;101300.88;4994823;28;20281;-60
2022/10/05 11:32:41;;;;;;;17.05;9.70;;;;;;;18.51;69.46;101283.63;5007606;28;20062;-59
2022/10/05 11:35:33;;;;;;;15.68;9.85;;;;;;;18.48;69.94;101275.06;5005976;28;20048;-58
2022/10/05 11:38:14;;;;;;;15.23;9.90;;;;;;;18.48;69.83;101273.09;5014377;28;20133;-59
2022/10/05 11:40:42;;;;;;;16.70;10.52;;;;;;;18.62;69.33;101263.50;5014642;28;20104;-60
2022/10/05 11:43:16;;;;;;;17.55;10.55;;;;;;;18.69;68.57;101263.75;5014488;28;20025;-60
2022/10/05 11:45:54;;;;;;;15.20;10.30;;;;;;;18.77;68.72;101264.78;5012935;28;20065;-59
2022/10/05 11:48:43;;;;;;;15.30;9.93;;;;;;;18.80;68.74;101269.69;5006535;28;20042;-59
2022/10/05 11:51:37;;;;;;;17.60;10.00;;;;;;;18.79;68.01;101256.84;5011832;28;20030;-59
2022/10/05 11:54:20;;;;;;;15.30;9.98;;;;;;;18.71;68.80;101251.03;5014663;28;20424;-59
2022/10/05 11:57:12;;;;;;;16.42;10.15;;;;;;;18.72;68.14;101243.41;5014779;28;20045;-60
2022/10/05 11:59:55;;;;;;;17.05;10.70;;;;;;;18.82;68.29;101233.72;5014601;28;20029;-59
2022/10/05 12:02:49;;;;;;;16.60;10.20;;;;;;;19.07;68.15;101234.53;5014356;28;20068;-60
2022/10/05 12:05:39;;;;;;;16.65;10.00;;;;;;;19.20;68.05;101228.84;4996185;28;20133;-60
2022/10/05 12:08:23;;;;;;;15.35;10.20;;;;;;;19.31;67.27;101218.75;5013436;28;20651;-61
2022/10/05 12:11:04;;;;;;;;;;;;;;;19.39;67.09;101216.97;5014455;28;20022;-60
2022/10/05 12:13:52;;;;;;;14.80;9.65;;;;;;;19.34;67.28;101212.44;5014232;28;19917;-59
2022/10/05 12:16:33;;;;;;;15.02;9.30;;;;;;;19.23;67.33;101219.72;5014053;28;20018;-59
2022/10/05 12:19:12;;;;;;;15.57;9.43;;;;;;;19.16;67.17;101209.13;5014624;28;20053;-59
2022/10/05 12:21:46;;;;;;;15.18;9.60;;;;;;;19.13;67.77;101196.63;5014281;28;20086;-59